Time;durP1;ratioP1;P1;durP2;ratioP2;P2;SDS_P1;SDS_P2;PMS_P1;PMS_P2;Temp;Humidity;BMP_temperature;BMP_pressure;BME280_temperature;BME280_humidity;BME280_pressure;Samples;Min_cycle;Max_cycle;Signal;HPM_P1;HPM_P2
2022/04/30 00:02:08;;;;;;;78.63;45.78;;;9.60;99.90;;;;;;5014386;28;20026;-52
2022/04/30 00:04:39;;;;;;;73.68;44.70;;;9.70;99.90;;;;;;5014595;28;20498;-52
2022/04/30 00:07:06;;;;;;;79.63;44.42;;;9.60;99.90;;;;;;5014377;28;20025;-52
2022/04/30 00:09:33;;;;;;;79.28;44.30;;;9.50;99.90;;;;;;5014466;28;20080;-52
2022/04/30 00:11:59;;;;;;;77.45;43.65;;;9.50;99.90;;;;;;5014231;28;20034;-52
2022/04/30 00:14:27;;;;;;;70.90;41.45;;;9.40;99.90;;;;;;5011556;28;20029;-52
2022/04/30 00:16:53;;;;;;;70.22;40.83;;;9.40;99.90;;;;;;5014496;28;20034;-52
2022/04/30 00:19:21;;;;;;;70.88;40.35;;;9.30;99.90;;;;;;5014247;28;20472;-52
2022/04/30 00:21:48;;;;;;;69.78;38.58;;;9.20;99.90;;;;;;5014413;28;20054;-52
2022/04/30 00:24:14;;;;;;;67.72;35.97;;;9.20;99.90;;;;;;5014274;28;20060;-52
2022/04/30 00:26:40;;;;;;;65.68;35.92;;;9.10;99.90;;;;;;5014148;28;20030;-52
2022/04/30 00:29:07;;;;;;;59.40;35.60;;;9.00;99.90;;;;;;5014194;28;20099;-52
2022/04/30 00:31:34;;;;;;;57.58;34.75;;;8.90;99.90;;;;;;5014363;28;20033;-52
2022/04/30 00:34:01;;;;;;;55.83;32.95;;;8.80;99.90;;;;;;5014195;28;20030;-52
2022/04/30 00:36:28;;;;;;;72.75;40.03;;;8.80;99.90;;;;;;5014429;28;20041;-52
2022/04/30 00:38:55;;;;;;;80.13;43.10;;;8.80;99.90;;;;;;5014090;28;20053;-52
2022/04/30 00:41:23;;;;;;;82.65;41.50;;;8.90;99.90;;;;;;5013972;28;20124;-52
2022/04/30 00:43:51;;;;;;;77.03;39.90;;;8.90;99.90;;;;;;5014238;28;20034;-51
2022/04/30 00:46:19;;;;;;;66.82;37.15;;;8.90;99.90;;;;;;5014271;28;20533;-52
2022/04/30 00:48:45;;;;;;;61.05;35.65;;;8.90;99.90;;;;;;5014164;28;20034;-52
2022/04/30 00:51:19;;;;;;;63.40;34.30;;;8.80;99.90;;;;;;5014097;28;20061;-52
2022/04/30 00:53:47;;;;;;;58.78;34.25;;;8.80;99.90;;;;;;5015226;28;20107;-52
2022/04/30 00:56:14;;;;;;;55.22;31.63;;;8.80;99.90;;;;;;5017743;28;20041;-51
2022/04/30 00:58:42;;;;;;;57.97;32.47;;;8.80;99.90;;;;;;5017571;28;20033;-52
2022/04/30 01:01:08;;;;;;;55.33;33.60;;;8.80;99.90;;;;;;5017658;28;20042;-52
2022/04/30 01:03:55;;;;;;;52.30;30.23;;;8.70;99.90;;;;;;5017099;28;20030;-52
2022/04/30 01:06:49;;;;;;;92.22;45.10;;;8.70;99.90;;;;;;5017253;28;20034;-52
2022/04/30 01:09:31;;;;;;;75.10;38.70;;;8.70;99.90;;;;;;5013259;28;20050;-52
2022/04/30 01:12:10;;;;;;;57.15;30.98;;;8.70;99.90;;;;;;5017470;28;20034;-52
2022/04/30 01:14:39;;;;;;;51.33;28.77;;;8.60;99.90;;;;;;5017120;28;20022;-52
2022/04/30 01:17:10;;;;;;;49.08;29.50;;;8.60;99.90;;;;;;5017110;28;20511;-52
2022/04/30 01:19:43;;;;;;;55.72;29.50;;;8.60;99.90;;;;;;5017142;28;20025;-52
2022/04/30 01:22:13;;;;;;;52.60;28.77;;;8.70;99.90;;;;;;5016917;28;20397;-52
2022/04/30 01:24:41;;;;;;;52.00;29.30;;;8.60;99.90;;;;;;5017036;28;20418;-52
2022/04/30 01:27:07;;;;;;;53.15;30.10;;;8.60;99.90;;;;;;5016895;28;20054;-52
2022/04/30 01:29:36;;;;;;;65.30;32.85;;;8.60;99.90;;;;;;5016819;28;20476;-52
2022/04/30 01:37:36;;;;;;;55.25;29.42;;;8.40;99.90;;;;;;5016696;28;20536;-52
2022/04/30 01:40:10;;;;;;;50.08;28.27;;;8.40;99.90;;;;;;5016846;28;20038;-52
2022/04/30 01:42:41;;;;;;;72.45;36.88;;;8.40;99.90;;;;;;5016980;28;20018;-52
2022/04/30 01:45:08;;;;;;;;;;;8.30;99.90;;;;;;5017013;28;20037;-52
2022/04/30 01:47:39;;;;;;;64.13;31.85;;;8.40;99.90;;;;;;5016656;28;20375;-52
2022/04/30 01:50:06;;;;;;;73.50;37.65;;;8.40;99.90;;;;;;5016577;28;20093;-52
2022/04/30 01:52:32;;;;;;;82.50;38.80;;;8.40;99.90;;;;;;5016515;28;20072;-52
2022/04/30 01:54:58;;;;;;;79.97;39.60;;;8.40;99.90;;;;;;5016529;28;20431;-52
2022/04/30 01:57:28;;;;;;;74.72;37.88;;;8.40;99.90;;;;;;5016537;28;20084;-52
2022/04/30 01:59:55;;;;;;;71.53;35.78;;;8.30;99.90;;;;;;5016226;28;20041;-52
2022/04/30 02:02:24;;;;;;;67.18;33.70;;;8.30;99.90;;;;;;5016268;28;20022;-52
2022/04/30 02:04:55;;;;;;;64.68;33.15;;;8.30;99.90;;;;;;5015933;28;20032;-52
2022/04/30 02:07:22;;;;;;;59.03;31.08;;;8.30;99.90;;;;;;5016107;28;20109;-52
2022/04/30 02:09:51;;;;;;;101.05;41.80;;;8.30;99.90;;;;;;5016171;28;20538;-52
2022/04/30 02:12:18;;;;;;;86.80;39.40;;;8.40;99.90;;;;;;5016139;28;20474;-52
2022/04/30 02:14:50;;;;;;;69.88;31.83;;;8.40;99.90;;;;;;5016098;28;20030;-52
2022/04/30 02:17:18;;;;;;;45.53;26.50;;;8.40;99.90;;;;;;5015984;28;20492;-52
2022/04/30 02:22:30;;;;;;;57.30;27.92;;;8.30;99.90;;;;;;5016005;28;20037;-52
2022/04/30 02:25:00;;;;;;;69.90;32.78;;;8.30;99.90;;;;;;5015889;28;20029;-52
2022/04/30 02:27:27;;;;;;;64.80;33.28;;;8.20;99.90;;;;;;5015759;28;20030;-52
2022/04/30 02:29:53;;;;;;;60.50;30.25;;;8.20;99.90;;;;;;5015703;28;20534;-52
2022/04/30 02:32:19;;;;;;;69.15;32.72;;;8.20;99.90;;;;;;5015854;28;20034;-52
2022/04/30 02:34:45;;;;;;;57.05;27.45;;;8.20;99.90;;;;;;5015752;28;20030;-52
2022/04/30 02:37:14;;;;;;;43.47;23.42;;;8.10;99.90;;;;;;5015608;28;20037;-52
2022/04/30 02:39:46;;;;;;;40.35;22.65;;;8.20;99.90;;;;;;5015556;28;20045;-52
2022/04/30 02:42:13;;;;;;;33.85;20.40;;;8.20;99.90;;;;;;5015507;28;20053;-52
2022/04/30 02:44:39;;;;;;;36.47;22.77;;;8.20;99.90;;;;;;5015647;28;20423;-52
2022/04/30 02:47:08;;;;;;;36.08;22.15;;;8.30;99.90;;;;;;5015531;28;20030;-52
2022/04/30 02:49:33;;;;;;;35.42;22.30;;;8.30;99.90;;;;;;5015817;28;20026;-52
2022/04/30 02:51:59;;;;;;;36.88;21.20;;;8.20;99.90;;;;;;5015558;28;20076;-52
2022/04/30 02:54:25;;;;;;;33.80;20.17;;;8.20;99.90;;;;;;5015439;28;20033;-52
2022/04/30 02:56:51;;;;;;;30.02;19.45;;;8.10;99.90;;;;;;5015251;28;20044;-52
2022/04/30 03:02:08;;;;;;;36.97;20.65;;;8.20;99.90;;;;;;5013887;28;20030;-52
2022/04/30 03:04:51;;;;;;;65.38;29.05;;;8.10;99.90;;;;;;5013961;28;20103;-52
2022/04/30 03:07:19;;;;;;;74.95;32.55;;;8.20;99.90;;;;;;5015185;28;20130;-52
2022/04/30 03:09:47;;;;;;;79.05;31.70;;;8.10;99.90;;;;;;5015111;28;20030;-52
2022/04/30 03:12:14;;;;;;;75.75;32.20;;;8.00;99.90;;;;;;5015098;28;20309;-52
2022/04/30 03:14:41;;;;;;;70.07;29.05;;;8.00;99.90;;;;;;5015004;28;20033;-52
2022/04/30 03:22:56;;;;;;;44.85;22.67;;;8.00;99.90;;;;;;4973610;28;20608;-52
2022/04/30 03:25:23;;;;;;;36.58;20.45;;;8.00;99.90;;;;;;4973332;28;20065;-52
2022/04/30 03:27:49;;;;;;;46.55;22.77;;;7.90;99.90;;;;;;4973441;28;20030;-52
2022/04/30 03:30:15;;;;;;;38.70;20.95;;;7.90;99.90;;;;;;4973342;28;20066;-52
2022/04/30 03:32:42;;;;;;;56.45;24.77;;;7.90;99.90;;;;;;4973258;28;20046;-52
2022/04/30 03:35:09;;;;;;;46.90;24.00;;;7.90;99.90;;;;;;4973439;28;20202;-52
2022/04/30 03:37:35;;;;;;;44.50;23.45;;;7.80;99.90;;;;;;4973217;28;20066;-52
2022/04/30 03:40:01;;;;;;;46.15;23.65;;;7.80;99.90;;;;;;4973194;28;20118;-55
2022/04/30 03:42:28;;;;;;;43.35;22.85;;;7.70;99.90;;;;;;4973329;28;20037;-52
2022/04/30 03:44:54;;;;;;;48.05;21.58;;;7.70;99.90;;;;;;4973186;28;20481;-52
2022/04/30 03:47:20;;;;;;;45.75;22.38;;;7.70;99.90;;;;;;4973187;28;20055;-53
2022/04/30 03:49:47;;;;;;;38.08;21.48;;;7.70;99.90;;;;;;4973759;28;20030;-52
2022/04/30 03:52:12;;;;;;;43.10;19.98;;;7.60;99.90;;;;;;5014693;28;20045;-52
2022/04/30 03:54:39;;;;;;;39.63;21.13;;;7.60;99.90;;;;;;5014759;28;20038;-52
2022/04/30 03:57:06;;;;;;;43.53;22.00;;;7.60;99.90;;;;;;5014563;28;20053;-52
2022/04/30 03:59:33;;;;;;;43.50;22.27;;;7.60;99.90;;;;;;5013319;28;20041;-52
2022/04/30 04:01:59;;;;;;;43.38;20.83;;;7.60;99.90;;;;;;5014600;28;20026;-52
2022/04/30 04:04:27;;;;;;;45.83;21.55;;;7.60;99.90;;;;;;5014537;28;20452;-52
2022/04/30 04:06:53;;;;;;;40.03;19.83;;;7.60;99.90;;;;;;5014450;28;20479;-52
2022/04/30 04:09:19;;;;;;;41.53;20.23;;;7.60;99.90;;;;;;5014468;28;20026;-52
2022/04/30 04:11:45;;;;;;;38.55;19.63;;;7.60;99.90;;;;;;5014516;28;20022;-52
2022/04/30 04:19:41;;;;;;;54.13;23.10;;;7.60;99.90;;;;;;5014382;28;20060;-52
2022/04/30 04:22:07;;;;;;;45.35;20.33;;;7.70;99.90;;;;;;5014252;28;20030;-52
2022/04/30 04:27:18;;;;;;;36.05;19.38;;;7.80;99.90;;;;;;5014863;28;20034;-54
2022/04/30 04:29:46;;;;;;;37.75;19.90;;;7.80;99.90;;;;;;5017757;28;20049;-52
2022/04/30 04:32:13;;;;;;;44.40;19.85;;;7.90;99.90;;;;;;5018170;28;20104;-52
2022/04/30 04:34:39;;;;;;;38.80;20.15;;;7.90;99.90;;;;;;5017910;28;20040;-52
2022/04/30 04:37:05;;;;;;;40.08;19.92;;;7.90;99.90;;;;;;5017985;28;20030;-52
2022/04/30 04:39:31;;;;;;;39.53;18.27;;;8.00;99.90;;;;;;5017881;28;20034;-52
2022/04/30 04:41:57;;;;;;;33.20;18.63;;;8.20;99.90;;;;;;5017837;28;20021;-52
2022/04/30 04:44:22;;;;;;;54.80;27.23;;;8.20;99.90;;;;;;5017796;28;20364;-52
2022/04/30 04:46:49;;;;;;;57.58;29.85;;;8.20;99.90;;;;;;5017835;28;20531;-52
2022/04/30 04:49:15;;;;;;;54.65;28.15;;;8.20;99.90;;;;;;5017634;28;20414;-52
2022/04/30 04:51:41;;;;;;;52.35;26.25;;;8.30;99.90;;;;;;5017665;28;20492;-52
2022/04/30 04:54:07;;;;;;;48.10;24.95;;;8.40;99.90;;;;;;5017658;28;20037;-52
2022/04/30 04:56:33;;;;;;;48.03;24.42;;;8.50;99.90;;;;;;5017581;28;20065;-52
2022/04/30 04:59:00;;;;;;;41.53;21.65;;;8.60;99.90;;;;;;5017353;28;20533;-52
2022/04/30 05:01:26;;;;;;;34.75;19.60;;;8.60;99.90;;;;;;5017429;28;20076;-52
2022/04/30 05:03:52;;;;;;;35.08;18.73;;;8.70;99.90;;;;;;5017362;28;20071;-52
2022/04/30 05:06:18;;;;;;;35.03;18.92;;;8.80;99.90;;;;;;5017420;28;20391;-52
2022/04/30 05:08:44;;;;;;;41.85;20.75;;;8.80;99.90;;;;;;5017413;28;20038;-52
2022/04/30 05:11:10;;;;;;;41.35;20.83;;;8.80;99.90;;;;;;5017141;28;20080;-52
2022/04/30 05:13:36;;;;;;;32.45;17.75;;;8.90;99.90;;;;;;5017349;28;20026;-52
2022/04/30 05:16:02;;;;;;;33.85;19.50;;;9.10;99.90;;;;;;5017289;28;20081;-52
2022/04/30 05:18:28;;;;;;;39.13;19.52;;;9.30;99.90;;;;;;5017166;28;20038;-52
2022/04/30 05:20:54;;;;;;;47.35;19.45;;;9.50;99.90;;;;;;5017081;28;20052;-52
2022/04/30 05:23:20;;;;;;;48.45;28.20;;;9.60;99.90;;;;;;5017313;28;20054;-52
2022/04/30 05:25:46;;;;;;;31.42;19.13;;;9.70;99.90;;;;;;5016975;28;20030;-52
2022/04/30 05:28:13;;;;;;;29.95;18.13;;;9.90;99.90;;;;;;5016779;28;20087;-52
2022/04/30 05:30:39;;;;;;;38.40;19.33;;;10.00;99.90;;;;;;5017038;28;20304;-52
2022/04/30 05:33:05;;;;;;;37.20;19.27;;;10.20;99.90;;;;;;5016815;28;20726;-52
2022/04/30 05:35:31;;;;;;;45.90;20.15;;;10.40;99.90;;;;;;5017061;28;20034;-52
2022/04/30 05:37:57;;;;;;;43.17;21.85;;;10.40;99.90;;;;;;5016805;28;20057;-52
2022/04/30 05:40:23;;;;;;;39.60;20.52;;;10.60;99.90;;;;;;5016156;28;20034;-52
2022/04/30 05:42:49;;;;;;;35.70;20.60;;;10.70;99.90;;;;;;5016825;28;20026;-52
2022/04/30 05:45:15;;;;;;;38.05;19.75;;;10.80;99.90;;;;;;5016730;28;20062;-52
2022/04/30 05:47:41;;;;;;;42.15;20.08;;;11.00;99.90;;;;;;5016458;28;20029;-52
2022/04/30 05:50:09;;;;;;;42.05;20.48;;;11.20;99.90;;;;;;5016674;28;20088;-52
2022/04/30 05:52:35;;;;;;;36.60;19.15;;;11.40;99.90;;;;;;5016653;28;20026;-52
2022/04/30 05:55:03;;;;;;;56.42;21.40;;;11.60;99.90;;;;;;5016482;28;20041;-52
2022/04/30 05:57:32;;;;;;;44.75;19.58;;;11.70;99.90;;;;;;5016611;28;20030;-52
2022/04/30 05:59:59;;;;;;;40.72;20.42;;;11.80;99.90;;;;;;5016240;28;20042;-52
2022/04/30 06:02:25;;;;;;;46.13;21.70;;;11.50;99.90;;;;;;5016519;28;20419;-52
2022/04/30 06:04:51;;;;;;;45.53;20.08;;;11.60;99.90;;;;;;5016425;28;20026;-52
2022/04/30 06:07:17;;;;;;;37.78;21.00;;;11.80;99.90;;;;;;5016302;28;20029;-52
2022/04/30 06:09:43;;;;;;;37.17;19.25;;;12.00;99.90;;;;;;5015963;28;20044;-52
2022/04/30 06:12:09;;;;;;;48.03;21.38;;;12.30;99.90;;;;;;5016252;28;20030;-52
2022/04/30 06:14:36;;;;;;;48.95;21.05;;;12.40;99.90;;;;;;5016067;28;20030;-52
2022/04/30 06:17:02;;;;;;;37.63;19.90;;;12.50;99.90;;;;;;5015970;28;20088;-52
2022/04/30 06:19:28;;;;;;;48.30;20.02;;;12.50;99.90;;;;;;5016046;28;20034;-52
2022/04/30 06:21:54;;;;;;;46.33;22.08;;;12.70;99.90;;;;;;5016020;28;20387;-52
2022/04/30 06:24:20;;;;;;;39.38;20.02;;;12.80;99.90;;;;;;5015986;28;20029;-52
2022/04/30 06:26:46;;;;;;;42.65;21.48;;;13.10;99.90;;;;;;5016135;28;20034;-52
2022/04/30 06:29:13;;;;;;;30.73;18.45;;;13.10;99.90;;;;;;5015645;28;20041;-52
2022/04/30 06:31:39;;;;;;;34.05;19.35;;;13.40;99.90;;;;;;5015850;28;20038;-52
2022/04/30 06:34:06;;;;;;;29.60;18.80;;;13.60;99.90;;;;;;5015785;28;20080;-52
2022/04/30 06:36:32;;;;;;;38.83;19.85;;;13.90;99.90;;;;;;5015676;28;20108;-52
2022/04/30 06:38:58;;;;;;;39.38;21.10;;;14.20;99.90;;;;;;5015611;28;20049;-52
2022/04/30 06:41:24;;;;;;;37.17;20.98;;;14.60;99.90;;;;;;5015689;28;20026;-52
2022/04/30 06:43:51;;;;;;;43.20;21.52;;;14.80;99.90;;;;;;5015582;28;20060;-52
2022/04/30 06:46:17;;;;;;;49.13;23.00;;;15.10;99.90;;;;;;5015549;28;20488;-52
2022/04/30 06:48:46;;;;;;;38.78;21.30;;;15.20;99.90;;;;;;5015767;28;20041;-52
2022/04/30 06:51:12;;;;;;;53.75;22.23;;;15.40;99.90;;;;;;5015299;28;20026;-53
2022/04/30 06:59:11;;;;;;;47.60;20.95;;;16.00;99.90;;;;;;5015097;28;20029;-52
2022/04/30 07:02:00;;;;;;;39.72;19.33;;;16.10;99.90;;;;;;5015238;28;20029;-52
2022/04/30 07:04:27;;;;;;;31.88;18.25;;;15.90;99.90;;;;;;5015093;28;20069;-52
2022/04/30 07:06:53;;;;;;;32.20;18.63;;;16.50;99.90;;;;;;5015049;28;20025;-52
2022/04/30 07:09:19;;;;;;;30.08;18.83;;;16.90;99.90;;;;;;5015613;28;20484;-53
2022/04/30 07:11:45;;;;;;;45.47;21.33;;;17.10;99.90;;;;;;5015204;28;20029;-53
2022/04/30 07:14:11;;;;;;;40.53;20.45;;;17.40;99.90;;;;;;5014938;28;20109;-53
2022/04/30 07:16:38;;;;;;;36.53;21.92;;;17.40;99.90;;;;;;5015015;28;20084;-53
2022/04/30 07:19:04;;;;;;;41.15;20.98;;;17.70;99.90;;;;;;5014870;28;20125;-53
2022/04/30 07:21:31;;;;;;;36.50;20.00;;;18.00;99.90;;;;;;5015005;28;20018;-53
2022/04/30 07:23:59;;;;;;;37.83;20.25;;;18.20;99.90;;;;;;5014917;28;20069;-53
2022/04/30 07:26:25;;;;;;;31.27;17.70;;;18.20;99.60;;;;;;5014764;28;20026;-53
2022/04/30 07:28:52;;;;;;;42.05;19.92;;;18.40;99.10;;;;;;5014716;28;20427;-53
2022/04/30 07:31:18;;;;;;;33.35;18.10;;;18.80;99.40;;;;;;5015014;28;20061;-53
2022/04/30 07:33:44;;;;;;;42.30;18.83;;;19.10;97.90;;;;;;5014763;28;20034;-53
2022/04/30 07:36:10;;;;;;;27.85;16.92;;;19.60;96.50;;;;;;5014732;28;20026;-53
2022/04/30 07:38:37;;;;;;;33.70;17.13;;;19.60;91.90;;;;;;5014701;28;20037;-53
2022/04/30 07:41:03;;;;;;;31.00;18.75;;;19.90;90.80;;;;;;5014708;28;20100;-53
2022/04/30 07:43:29;;;;;;;33.13;17.58;;;19.90;90.60;;;;;;5014658;28;20057;-53
2022/04/30 07:45:55;;;;;;;30.35;15.60;;;20.30;86.20;;;;;;5014722;28;20037;-53
2022/04/30 07:48:21;;;;;;;25.90;15.88;;;20.70;90.90;;;;;;5014407;28;20034;-53
2022/04/30 07:50:47;;;;;;;31.08;16.90;;;20.70;78.00;;;;;;5014662;28;20034;-53
2022/04/30 07:53:14;;;;;;;30.98;16.70;;;21.00;90.10;;;;;;5014615;28;20076;-53
2022/04/30 07:55:44;;;;;;;26.10;16.35;;;21.30;81.00;;;;;;5014661;28;20037;-53
2022/04/30 07:58:10;;;;;;;27.83;16.03;;;21.40;78.90;;;;;;5014494;28;20369;-53
2022/04/30 08:00:36;;;;;;;26.80;15.23;;;21.20;81.00;;;;;;5014710;28;20022;-53
2022/04/30 08:03:03;;;;;;;34.22;15.85;;;21.10;78.10;;;;;;5016206;28;20034;-53
2022/04/30 08:05:29;;;;;;;24.20;15.38;;;21.50;78.20;;;;;;5018658;28;20050;-53
2022/04/30 08:07:56;;;;;;;25.15;15.55;;;21.40;73.70;;;;;;5018467;28;20022;-53
2022/04/30 08:10:22;;;;;;;24.70;15.48;;;20.90;79.80;;;;;;5018405;28;20055;-53
2022/04/30 08:12:53;;;;;;;24.63;15.32;;;20.60;86.80;;;;;;5018436;28;20040;-53
2022/04/30 08:15:24;;;;;;;29.92;16.08;;;20.50;81.90;;;;;;5018362;28;20029;-53
2022/04/30 08:17:51;;;;;;;24.65;14.77;;;20.40;83.80;;;;;;5018303;28;20030;-53
2022/04/30 08:20:17;;;;;;;24.92;15.70;;;20.20;83.60;;;;;;5018255;28;20523;-53
2022/04/30 08:22:43;;;;;;;29.75;17.08;;;20.00;90.00;;;;;;5018121;28;20060;-53
2022/04/30 08:25:09;;;;;;;26.45;16.10;;;19.80;91.10;;;;;;5017980;28;20434;-53
2022/04/30 08:27:35;;;;;;;25.13;15.85;;;19.90;91.00;;;;;;5018175;28;20102;-53
2022/04/30 08:30:01;;;;;;;24.10;15.60;;;20.00;93.00;;;;;;5017791;28;20080;-53
2022/04/30 08:32:27;;;;;;;23.25;13.63;;;20.20;84.90;;;;;;5017988;28;20482;-53
2022/04/30 08:34:54;;;;;;;19.13;13.60;;;20.30;82.60;;;;;;5017925;28;20034;-53
2022/04/30 08:37:20;;;;;;;20.25;13.65;;;20.60;90.80;;;;;;5018131;28;20309;-53
2022/04/30 08:39:46;;;;;;;19.65;13.57;;;20.90;79.20;;;;;;5017858;28;20332;-53
2022/04/30 08:42:13;;;;;;;22.33;13.65;;;21.60;82.80;;;;;;5017617;28;20543;-53
2022/04/30 08:44:39;;;;;;;21.90;13.45;;;21.50;64.90;;;;;;5017866;28;20028;-53
2022/04/30 08:47:09;;;;;;;15.73;11.95;;;21.80;62.90;;;;;;5017796;28;20081;-53
2022/04/30 08:49:35;;;;;;;19.77;12.57;;;21.60;58.90;;;;;;5017684;28;20384;-53
2022/04/30 08:52:01;;;;;;;25.73;11.80;;;21.80;69.80;;;;;;5017546;28;20088;-53
2022/04/30 08:54:27;;;;;;;19.50;11.60;;;22.00;78.60;;;;;;5017699;28;20064;-53
2022/04/30 08:56:56;;;;;;;25.00;12.95;;;22.40;58.30;;;;;;5017650;28;20037;-53
2022/04/30 08:59:23;;;;;;;22.75;12.25;;;22.60;64.60;;;;;;5017268;28;20106;-53
2022/04/30 09:01:52;;;;;;;21.95;12.27;;;22.40;58.60;;;;;;5017543;28;20079;-53
2022/04/30 09:04:19;;;;;;;27.83;11.32;;;22.00;57.60;;;;;;5017505;28;20499;-53
2022/04/30 09:06:45;;;;;;;17.40;10.75;;;21.90;60.50;;;;;;5017298;28;20033;-53
2022/04/30 09:09:12;;;;;;;24.35;12.00;;;21.70;64.60;;;;;;5017305;28;20388;-53
2022/04/30 09:11:39;;;;;;;19.63;12.30;;;21.80;60.00;;;;;;5017231;28;20073;-53
2022/04/30 09:14:05;;;;;;;16.77;12.35;;;21.70;60.60;;;;;;5015927;28;20157;-53
2022/04/30 09:16:32;;;;;;;15.32;10.23;;;21.60;59.80;;;;;;5017402;28;20113;-53
2022/04/30 09:19:03;;;;;;;18.95;12.20;;;21.70;57.80;;;;;;5017017;28;20107;-53
2022/04/30 09:21:29;;;;;;;16.85;11.35;;;21.10;59.70;;;;;;5017102;28;20062;-53
2022/04/30 09:24:05;;;;;;;11.50;8.90;;;21.10;62.60;;;;;;5017137;28;20361;-52
2022/04/30 09:26:41;;;;;;;18.75;9.27;;;21.10;61.00;;;;;;5017026;28;20510;-53
2022/04/30 09:29:23;;;;;;;16.00;9.07;;;21.10;60.30;;;;;;5016788;28;20034;-53
2022/04/30 09:31:53;;;;;;;18.70;10.23;;;20.90;72.00;;;;;;5016926;28;20502;-53
2022/04/30 09:39:50;;;;;;;11.93;8.13;;;20.50;69.90;;;;;;5016663;28;20377;-52
2022/04/30 09:42:17;;;;;;;15.32;9.02;;;20.50;72.80;;;;;;5016602;28;20037;-53
2022/04/30 09:44:43;;;;;;;15.57;9.13;;;20.50;70.60;;;;;;5016691;28;20021;-53
2022/04/30 09:47:09;;;;;;;33.50;11.77;;;20.50;65.90;;;;;;5016497;28;20443;-53
2022/04/30 09:55:08;;;;;;;12.25;9.55;;;20.20;71.80;;;;;;5016503;28;20090;-52
2022/04/30 09:57:38;;;;;;;14.63;9.27;;;20.10;77.50;;;;;;5016287;28;20492;-53
2022/04/30 10:00:08;;;;;;;16.00;8.98;;;20.10;71.00;;;;;;5016543;28;20038;-52
2022/04/30 10:02:39;;;;;;;18.48;9.25;;;20.20;83.80;;;;;;5016357;28;20034;-52
2022/04/30 10:05:06;;;;;;;21.23;10.85;;;20.30;72.40;;;;;;5016218;28;20171;-53
2022/04/30 10:07:33;;;;;;;26.98;10.90;;;20.40;68.20;;;;;;5016274;28;20026;-53
2022/04/30 10:09:59;;;;;;;18.92;10.50;;;20.10;69.50;;;;;;5016101;28;20021;-53
2022/04/30 10:12:35;;;;;;;15.63;9.63;;;20.10;68.80;;;;;;5016309;28;20036;-52
2022/04/30 10:15:18;;;;;;;29.52;10.77;;;20.10;82.00;;;;;;5016318;28;20109;-53
2022/04/30 10:17:47;;;;;;;20.25;8.57;;;20.30;81.00;;;;;;5015882;28;20091;-53
2022/04/30 10:20:22;;;;;;;35.95;9.07;;;20.60;78.60;;;;;;5016155;28;20037;-53
2022/04/30 10:22:53;;;;;;;20.10;7.10;;;21.40;75.90;;;;;;5016049;28;20026;-53
2022/04/30 10:25:35;;;;;;;9.05;6.75;;;22.10;65.40;;;;;;5015672;28;20472;-53
2022/04/30 10:28:25;;;;;;;14.40;6.68;;;22.10;57.00;;;;;;5015788;28;20026;-53
2022/04/30 10:31:03;;;;;;;10.45;6.40;;;22.00;59.90;;;;;;5015717;28;20033;-53
2022/04/30 10:33:30;;;;;;;13.00;6.57;;;21.60;61.60;;;;;;5015922;28;20113;-53
2022/04/30 10:36:10;;;;;;;11.18;5.70;;;21.40;67.50;;;;;;5015810;28;20057;-53
2022/04/30 10:38:37;;;;;;;20.08;7.00;;;21.30;63.80;;;;;;5015624;28;20044;-53
2022/04/30 10:41:05;;;;;;;18.65;7.72;;;21.30;69.70;;;;;;5015811;28;20510;-53
2022/04/30 10:43:42;;;;;;;13.55;5.90;;;21.10;67.90;;;;;;5015669;28;20041;-53
2022/04/30 10:46:23;;;;;;;6.43;5.05;;;21.40;70.70;;;;;;5015461;28;20044;-53
2022/04/30 10:48:49;;;;;;;18.33;6.40;;;22.10;69.50;;;;;;5015669;28;20042;-53
2022/04/30 10:51:30;;;;;;;15.02;6.00;;;22.40;56.40;;;;;;5016000;28;20034;-53
2022/04/30 10:53:59;;;;;;;11.27;4.43;;;23.10;60.00;;;;;;5015443;28;20041;-53
2022/04/30 10:56:28;;;;;;;16.77;5.70;;;23.80;51.70;;;;;;5015375;28;20038;-53
2022/04/30 10:58:54;;;;;;;9.45;5.30;;;23.80;50.10;;;;;;5015251;28;20030;-53
2022/04/30 11:01:20;;;;;;;9.50;5.50;;;24.00;54.70;;;;;;5015213;28;20535;-53
2022/04/30 11:03:48;;;;;;;6.43;4.55;;;24.30;50.90;;;;;;5015190;28;20464;-53
2022/04/30 11:06:19;;;;;;;5.82;3.75;;;24.40;50.20;;;;;;5015163;28;20022;-53
2022/04/30 11:08:55;;;;;;;;;;;24.50;51.00;;;;;;5015579;28;20105;-53
2022/04/30 11:11:21;;;;;;;12.25;4.78;;;24.60;52.90;;;;;;5015122;28;19928;-53
2022/04/30 11:14:16;;;;;;;10.80;4.03;;;24.20;49.90;;;;;;5015005;28;20096;-53
2022/04/30 11:16:47;;;;;;;8.48;4.28;;;23.70;50.10;;;;;;5014919;28;20041;-53
2022/04/30 11:19:23;;;;;;;7.82;4.20;;;23.20;51.80;;;;;;5014976;28;20060;-53
2022/04/30 11:21:51;;;;;;;14.02;5.47;;;22.90;52.70;;;;;;5014887;28;20061;-53
2022/04/30 11:24:30;;;;;;;15.85;6.13;;;22.70;54.50;;;;;;5014896;28;20026;-53
2022/04/30 11:27:03;;;;;;;62.13;9.43;;;22.80;54.90;;;;;;5014923;28;20026;-53
2022/04/30 11:29:30;;;;;;;15.98;4.30;;;22.90;54.50;;;;;;5014803;28;20057;-53
2022/04/30 11:31:57;;;;;;;9.65;4.38;;;22.70;53.00;;;;;;5014923;28;20068;-53
2022/04/30 11:34:24;;;;;;;20.90;5.75;;;22.50;55.90;;;;;;5014859;28;20038;-54
2022/04/30 11:36:52;;;;;;;6.20;3.95;;;22.40;56.00;;;;;;5014293;28;20041;-53
2022/04/30 11:39:19;;;;;;;26.17;6.65;;;22.30;58.20;;;;;;5014608;28;20583;-53
2022/04/30 11:41:50;;;;;;;22.05;5.15;;;22.00;56.40;;;;;;5014607;28;20021;-53
2022/04/30 11:44:25;;;;;;;18.52;4.85;;;22.00;58.70;;;;;;5014774;28;20427;-53
2022/04/30 11:46:52;;;;;;;10.35;5.03;;;22.00;60.20;;;;;;5014689;28;20050;-53
2022/04/30 11:49:26;;;;;;;5.38;3.70;;;22.00;54.50;;;;;;5014562;28;20387;-53
2022/04/30 11:51:55;;;;;;;7.72;3.65;;;22.00;55.10;;;;;;5014687;28;20036;-53
2022/04/30 11:54:24;;;;;;;8.77;4.20;;;21.90;54.40;;;;;;5014775;28;20042;-53
2022/04/30 11:56:51;;;;;;;10.10;5.05;;;22.10;55.80;;;;;;5014560;28;20369;-53
2022/04/30 11:59:28;;;;;;;7.22;4.32;;;22.10;56.30;;;;;;5014589;28;20034;-53
2022/04/30 12:01:54;;;;;;;9.05;3.00;;;22.20;56.00;;;;;;5014655;28;20376;-53
2022/04/30 12:04:21;;;;;;;4.00;3.10;;;22.20;47.70;;;;;;5014437;28;20018;-53
2022/04/30 12:06:58;;;;;;;5.68;4.18;;;22.30;46.80;;;;;;5014699;28;20109;-53
2022/04/30 12:09:30;;;;;;;6.40;3.63;;;21.80;44.80;;;;;;5014368;28;20117;-53
2022/04/30 12:11:56;;;;;;;9.38;4.40;;;21.70;45.30;;;;;;5014423;28;20069;-53
2022/04/30 12:14:22;;;;;;;5.45;3.58;;;21.70;46.00;;;;;;5014524;28;20120;-53
2022/04/30 12:16:49;;;;;;;7.70;3.58;;;21.60;45.90;;;;;;5014474;28;20440;-53
2022/04/30 12:25:12;;;;;;;4.63;4.10;;;22.30;45.80;;;;;;5014211;28;20030;-53
2022/04/30 12:27:40;;;;;;;4.55;3.47;;;22.30;43.50;;;;;;5014236;28;20037;-53
2022/04/30 12:30:14;;;;;;;6.25;3.47;;;22.40;43.80;;;;;;5014177;28;20376;-53
2022/04/30 12:32:51;;;;;;;4.97;3.53;;;22.50;45.80;;;;;;5014177;28;20030;-53
2022/04/30 12:35:27;;;;;;;11.05;3.42;;;22.70;43.20;;;;;;5014383;28;20084;-52
2022/04/30 12:38:08;;;;;;;11.05;4.53;;;22.80;43.30;;;;;;5014125;28;20034;-53
2022/04/30 12:40:35;;;;;;;;;;;22.90;43.00;;;;;;5014648;28;20038;-53
2022/04/30 12:43:02;;;;;;;7.88;4.32;;;22.30;43.50;;;;;;5014201;28;19932;-53
2022/04/30 12:45:28;;;;;;;15.25;5.43;;;22.40;43.90;;;;;;5013978;28;20036;-53
2022/04/30 12:47:54;;;;;;;15.65;5.38;;;22.40;43.90;;;;;;5014109;28;20021;-53
2022/04/30 12:50:21;;;;;;;6.15;4.07;;;22.80;46.60;;;;;;5017809;28;20030;-53
2022/04/30 12:52:47;;;;;;;7.93;4.07;;;23.50;47.70;;;;;;5017660;28;20247;-53
2022/04/30 12:55:14;;;;;;;11.00;4.70;;;23.70;47.20;;;;;;5017586;28;20060;-53
2022/04/30 12:57:40;;;;;;;6.80;4.45;;;24.00;45.70;;;;;;5017664;28;20117;-53
2022/04/30 13:00:10;;;;;;;10.13;4.22;;;23.80;45.90;;;;;;5016102;28;20029;-53
2022/04/30 13:02:39;;;;;;;5.22;3.85;;;24.20;46.60;;;;;;5017607;28;20026;-53
2022/04/30 13:05:10;;;;;;;11.15;4.63;;;24.20;42.60;;;;;;5017412;28;20029;-53
2022/04/30 13:07:37;;;;;;;7.07;4.38;;;24.40;41.70;;;;;;5015955;28;20034;-53
2022/04/30 13:15:34;;;;;;;8.23;3.63;;;24.70;39.60;;;;;;5017202;28;20061;-53
2022/04/30 13:18:01;;;;;;;7.85;4.45;;;24.60;39.60;;;;;;5017299;28;20030;-53
2022/04/30 13:20:28;;;;;;;8.10;4.40;;;24.40;40.20;;;;;;5017170;28;20030;-53
2022/04/30 13:22:56;;;;;;;6.55;4.47;;;23.90;40.50;;;;;;5017006;28;20034;-53
2022/04/30 13:25:23;;;;;;;12.23;4.85;;;23.60;42.10;;;;;;5017031;28;20034;-53
2022/04/30 13:27:50;;;;;;;6.25;4.05;;;23.30;42.70;;;;;;5017212;28;20080;-53
2022/04/30 13:30:18;;;;;;;12.05;4.47;;;23.00;43.80;;;;;;5016744;28;20108;-53
2022/04/30 13:32:50;;;;;;;6.82;3.85;;;23.00;44.10;;;;;;5016942;28;20084;-53
2022/04/30 13:35:17;;;;;;;8.35;4.38;;;22.60;43.00;;;;;;5016824;28;20053;-53